Munich, Germany
Current Conditions -  °F | °C
As of 2:50 AM on Sunday 26 Oct 2014 (Local Time) from EDDM Reporting Station
Haze Haze  
Wind Chill: 45°   Ceiling: 1100
Heat Index: 45°   Visibility: 2.1mi
Dew Point: 45°   Wind: 2mph
Humidity: 100%   Direction: 60°ENE
Pressure: 30.3"   Gusts: NA
Location:  48.14°N, 11.58°E
Report Text: EDDM 260050Z 06002KT 3500 BR SCT003 BKN011 07/07 Q1026 NOSIG
Loading
Personal Weather Stations






























Interactive Weather Map
Tropical Storm Tracking
New forecast layout! Learn more

10-Day Weather Forecast

Advertisements
Track Severe Weather on mobile